Time;durP1;ratioP1;P1;durP2;ratioP2;P2;SDS_P1;SDS_P2;PMS_P1;PMS_P2;Temp;Humidity;BMP_temperature;BMP_pressure;BME280_temperature;BME280_humidity;BME280_pressure;Samples;Min_cycle;Max_cycle;Signal;HPM_P1;HPM_P2
2022/10/19 00:01:45;;;;;;;7.45;1.27;;;10.50;99.90;;;;;;5020717;28;20030;-56
2022/10/19 00:04:11;;;;;;;2.70;1.25;;;10.50;99.90;;;;;;5023261;28;20056;-56
2022/10/19 00:06:37;;;;;;;4.47;0.90;;;10.50;99.90;;;;;;5022848;28;20109;-51
2022/10/19 00:09:23;;;;;;;4.00;1.00;;;10.50;99.90;;;;;;5020603;28;20029;-57
2022/10/19 00:11:50;;;;;;;1.77;0.93;;;10.50;99.90;;;;;;5021571;28;20492;-51
2022/10/19 00:14:21;;;;;;;3.28;1.10;;;10.50;99.90;;;;;;5009412;28;20034;-52
2022/10/19 00:16:48;;;;;;;2.60;1.15;;;10.50;99.90;;;;;;5022833;28;20124;-53
2022/10/19 00:19:17;;;;;;;2.72;1.00;;;10.60;99.90;;;;;;5019903;28;20040;-53
2022/10/19 00:21:43;;;;;;;3.28;1.13;;;10.60;99.90;;;;;;5021784;28;20060;-52
2022/10/19 00:24:09;;;;;;;3.88;1.10;;;10.60;99.90;;;;;;5019213;28;20075;-51
2022/10/19 00:26:35;;;;;;;4.85;1.60;;;10.50;99.90;;;;;;5022880;28;20108;-54
2022/10/19 00:29:01;;;;;;;3.65;1.17;;;10.60;99.90;;;;;;5018695;28;20033;-53
2022/10/19 00:31:27;;;;;;;2.67;1.15;;;10.60;99.90;;;;;;5021433;28;20037;-53
2022/10/19 00:33:55;;;;;;;2.15;1.15;;;10.60;99.90;;;;;;5021276;28;20022;-54
2022/10/19 00:36:22;;;;;;;3.55;0.63;;;10.60;99.90;;;;;;5023939;28;20377;-53
2022/10/19 00:38:48;;;;;;;2.60;0.80;;;10.60;99.90;;;;;;5019642;28;20041;-59
2022/10/19 00:41:15;;;;;;;2.47;0.90;;;10.60;99.90;;;;;;5015601;28;20048;-51
2022/10/19 00:44:12;;;;;;;7.57;1.45;;;10.60;99.90;;;;;;5023203;28;20606;-53
2022/10/19 00:46:40;;;;;;;5.10;1.48;;;10.60;99.90;;;;;;4963244;28;20029;-51
2022/10/19 00:49:11;;;;;;;2.67;0.90;;;10.60;99.90;;;;;;5025165;28;20112;-52
2022/10/19 00:51:40;;;;;;;4.13;0.80;;;10.60;99.90;;;;;;5018373;28;20022;-56
2022/10/19 00:54:08;;;;;;;1.15;0.60;;;10.60;99.90;;;;;;5024714;28;20369;-51
2022/10/19 00:56:36;;;;;;;5.13;1.25;;;10.60;99.90;;;;;;5018363;28;20434;-54
2022/10/19 00:59:04;;;;;;;4.55;1.00;;;10.60;99.90;;;;;;5010101;28;20056;-52
2022/10/19 01:01:30;;;;;;;2.70;0.65;;;10.60;99.90;;;;;;5014115;28;20029;-52
2022/10/19 01:03:56;;;;;;;5.47;0.80;;;10.60;99.90;;;;;;5016917;28;20076;-52
2022/10/19 01:06:23;;;;;;;1.85;0.52;;;10.60;99.90;;;;;;5024298;28;20022;-56
2022/10/19 01:08:48;;;;;;;2.72;1.00;;;10.60;99.90;;;;;;5014016;28;20391;-53
2022/10/19 01:11:48;;;;;;;5.00;1.30;;;10.60;99.90;;;;;;5005620;28;20025;-52
2022/10/19 01:14:34;;;;;;;2.80;1.00;;;10.60;99.90;;;;;;4992791;28;20041;-52
2022/10/19 01:17:00;;;;;;;3.60;1.15;;;10.70;99.90;;;;;;5012186;28;20030;-52
2022/10/19 01:20:05;;;;;;;4.22;1.02;;;10.60;99.90;;;;;;5018972;28;20022;-52
2022/10/19 01:22:55;;;;;;;3.15;0.65;;;10.60;99.90;;;;;;5013975;28;20046;-54
2022/10/19 01:25:33;;;;;;;2.72;0.90;;;10.60;99.90;;;;;;5007026;28;20033;-53
2022/10/19 01:28:17;;;;;;;3.17;1.10;;;10.60;99.90;;;;;;5013193;28;20061;-54
2022/10/19 01:33:29;;;;;;;7.47;1.00;;;10.60;99.90;;;;;;5035756;23;20246;-46
2022/10/19 01:36:13;;;;;;;2.55;0.60;;;10.60;99.90;;;;;;5017598;28;20024;-48
2022/10/19 01:39:04;;;;;;;3.63;0.73;;;10.60;99.90;;;;;;5014614;28;20368;-50
2022/10/19 01:42:03;;;;;;;3.78;0.68;;;10.60;99.90;;;;;;5013885;28;20030;-46
2022/10/19 01:44:38;;;;;;;4.90;0.90;;;10.60;99.90;;;;;;5001484;28;20033;-47
2022/10/19 01:47:12;;;;;;;2.88;0.70;;;10.60;99.90;;;;;;5017336;28;20033;-47
2022/10/19 01:49:42;;;;;;;5.57;0.90;;;10.60;99.90;;;;;;5015310;28;20041;-47
2022/10/19 01:52:11;;;;;;;3.58;0.70;;;10.60;99.90;;;;;;5018207;28;20097;-47
2022/10/19 01:54:46;;;;;;;7.05;1.33;;;10.60;99.90;;;;;;5024850;28;20438;-50
2022/10/19 01:57:16;;;;;;;7.68;0.88;;;10.50;99.90;;;;;;5039051;28;20539;-47
2022/10/19 01:59:42;;;;;;;1.52;0.77;;;10.50;99.90;;;;;;4998198;28;20036;-47
2022/10/19 02:02:12;;;;;;;2.90;0.63;;;10.50;99.90;;;;;;5018519;28;20034;-46
2022/10/19 02:04:39;;;;;;;3.10;0.60;;;10.50;99.90;;;;;;5017301;28;20022;-47
2022/10/19 02:07:06;;;;;;;2.15;0.60;;;10.50;99.90;;;;;;5027109;28;20467;-47
2022/10/19 02:09:32;;;;;;;3.90;0.60;;;10.50;99.90;;;;;;5024030;28;20087;-46
2022/10/19 02:12:02;;;;;;;4.47;0.98;;;10.50;99.90;;;;;;5021277;28;20485;-47
2022/10/19 02:14:32;;;;;;;1.00;0.52;;;10.50;99.90;;;;;;5017168;28;20112;-46
2022/10/19 02:17:02;;;;;;;5.35;1.20;;;10.40;99.90;;;;;;5024163;28;20349;-49
2022/10/19 02:19:28;;;;;;;3.13;0.60;;;10.40;99.90;;;;;;5015250;28;20076;-49
2022/10/19 02:21:55;;;;;;;6.00;1.00;;;10.50;99.90;;;;;;5027283;28;20396;-46
2022/10/19 02:24:20;;;;;;;10.52;0.95;;;10.40;99.90;;;;;;5017816;28;20415;-46
2022/10/19 02:26:46;;;;;;;5.10;1.33;;;10.50;99.90;;;;;;5015199;28;20033;-51
2022/10/19 02:29:13;;;;;;;6.10;1.33;;;10.40;99.90;;;;;;5021784;28;20036;-47
2022/10/19 02:31:39;;;;;;;3.08;0.95;;;10.40;99.90;;;;;;5017050;28;20029;-47
2022/10/19 02:34:05;;;;;;;6.03;0.47;;;10.40;99.90;;;;;;5012570;28;20030;-49
2022/10/19 02:36:31;;;;;;;2.25;0.75;;;10.40;99.90;;;;;;5018599;28;20388;-47
2022/10/19 02:38:56;;;;;;;4.38;0.90;;;10.40;99.90;;;;;;5021467;28;20029;-48
2022/10/19 02:41:42;;;;;;;2.80;0.75;;;10.40;99.90;;;;;;5026322;28;20452;-47
2022/10/19 02:44:28;;;;;;;2.30;0.85;;;10.40;99.90;;;;;;5006817;28;20045;-47
2022/10/19 02:47:01;;;;;;;5.38;1.85;;;10.30;99.90;;;;;;5022924;28;20396;-48
2022/10/19 02:49:28;;;;;;;2.58;0.90;;;10.30;99.90;;;;;;5012732;28;20080;-47
2022/10/19 02:51:57;;;;;;;8.07;1.02;;;10.30;99.90;;;;;;5022952;28;20036;-46
2022/10/19 02:54:24;;;;;;;3.28;0.90;;;10.30;99.90;;;;;;5018756;28;20021;-51
2022/10/19 02:56:50;;;;;;;3.80;0.82;;;10.30;99.90;;;;;;5025440;28;20040;-47
2022/10/19 02:59:16;;;;;;;13.35;1.90;;;10.30;99.90;;;;;;5019316;28;20494;-46
2022/10/19 03:01:42;;;;;;;3.50;1.17;;;10.40;99.90;;;;;;5012876;28;20022;-48
2022/10/19 03:04:07;;;;;;;4.50;1.23;;;10.30;99.90;;;;;;5037123;28;20044;-48
2022/10/19 03:06:36;;;;;;;3.42;0.93;;;10.30;99.90;;;;;;5012010;28;20445;-48
2022/10/19 03:09:02;;;;;;;5.47;1.10;;;10.30;99.90;;;;;;5021784;28;20056;-50
2022/10/19 03:11:28;;;;;;;7.38;1.30;;;10.30;99.90;;;;;;5016195;28;20084;-49
2022/10/19 03:13:53;;;;;;;3.38;0.80;;;10.30;99.90;;;;;;5025607;28;20034;-47
2022/10/19 03:16:19;;;;;;;9.32;0.90;;;10.30;99.90;;;;;;5022193;28;20488;-49
2022/10/19 03:18:47;;;;;;;2.08;1.17;;;10.30;99.90;;;;;;5016230;28;20437;-50
2022/10/19 03:21:13;;;;;;;2.55;1.13;;;10.30;99.90;;;;;;5023950;28;20025;-46
2022/10/19 03:23:39;;;;;;;4.72;1.00;;;10.30;99.90;;;;;;5017903;28;20038;-50
2022/10/19 03:26:06;;;;;;;2.50;1.27;;;10.30;99.90;;;;;;5024257;28;20064;-47
2022/10/19 03:28:32;;;;;;;3.58;1.33;;;10.30;99.90;;;;;;5019054;28;20030;-47
2022/10/19 03:30:57;;;;;;;2.72;1.15;;;10.30;99.90;;;;;;5017226;28;20488;-49
2022/10/19 03:33:24;;;;;;;2.13;0.40;;;10.30;99.90;;;;;;5020834;28;20037;-47
2022/10/19 03:35:49;;;;;;;3.40;0.80;;;10.30;99.90;;;;;;5013417;28;20022;-46
2022/10/19 03:38:16;;;;;;;4.63;1.15;;;10.30;99.90;;;;;;5026176;28;20017;-47
2022/10/19 03:40:42;;;;;;;5.40;0.90;;;10.30;99.90;;;;;;5018602;28;20038;-49
2022/10/19 03:43:07;;;;;;;5.10;1.08;;;10.30;99.90;;;;;;5025816;28;20108;-46
2022/10/19 03:45:33;;;;;;;2.17;0.90;;;10.30;99.90;;;;;;5018731;28;20113;-46
2022/10/19 03:47:58;;;;;;;7.97;1.65;;;10.40;99.90;;;;;;5020150;28;20340;-47
2022/10/19 03:50:24;;;;;;;4.03;1.08;;;10.30;99.90;;;;;;5019682;28;20556;-47
2022/10/19 03:52:50;;;;;;;6.80;1.27;;;10.30;99.90;;;;;;5018624;28;20484;-48
2022/10/19 03:55:16;;;;;;;3.95;1.10;;;10.30;99.90;;;;;;5022513;28;20053;-48
2022/10/19 03:57:42;;;;;;;3.28;1.35;;;10.30;99.90;;;;;;5018137;28;20396;-47
2022/10/19 04:00:09;;;;;;;3.55;1.20;;;10.30;99.90;;;;;;5025561;28;20033;-46
2022/10/19 04:02:34;;;;;;;5.18;1.23;;;10.30;99.90;;;;;;5018083;28;20447;-49
2022/10/19 04:05:00;;;;;;;7.88;1.40;;;10.30;99.90;;;;;;5018068;28;20034;-48
2022/10/19 04:07:26;;;;;;;5.30;1.48;;;10.30;99.90;;;;;;5021899;28;20017;-47
2022/10/19 04:09:51;;;;;;;9.13;1.45;;;10.30;99.90;;;;;;5016276;28;20389;-47
2022/10/19 04:12:17;;;;;;;4.30;0.90;;;10.40;99.90;;;;;;5023790;28;20018;-49
2022/10/19 04:14:42;;;;;;;4.45;1.00;;;10.30;99.90;;;;;;5012855;28;20045;-46
2022/10/19 04:17:09;;;;;;;3.92;1.25;;;10.40;99.90;;;;;;5018727;28;20036;-46
2022/10/19 04:19:35;;;;;;;3.00;0.90;;;10.30;99.90;;;;;;5021602;28;20085;-46
2022/10/19 04:22:00;;;;;;;7.38;1.10;;;10.40;99.90;;;;;;5019430;28;20072;-47
2022/10/19 04:24:26;;;;;;;4.35;0.90;;;10.30;99.90;;;;;;5018869;28;20484;-46
2022/10/19 04:26:54;;;;;;;3.85;1.20;;;10.30;99.90;;;;;;5013191;28;20072;-51
2022/10/19 04:29:22;;;;;;;2.30;0.85;;;10.30;99.90;;;;;;5018449;28;20373;-47
2022/10/19 04:31:49;;;;;;;10.38;1.60;;;10.30;99.90;;;;;;5017432;28;20107;-48
2022/10/19 04:34:15;;;;;;;7.40;1.15;;;10.30;99.90;;;;;;5017404;28;20031;-46
2022/10/19 04:36:40;;;;;;;4.57;1.02;;;10.30;99.90;;;;;;5020023;28;20025;-48
2022/10/19 04:39:06;;;;;;;5.32;1.17;;;10.40;99.90;;;;;;5033340;28;20057;-47
2022/10/19 04:41:33;;;;;;;3.08;1.00;;;10.30;99.90;;;;;;5017208;28;20052;-47
2022/10/19 04:44:01;;;;;;;6.60;1.27;;;10.40;99.90;;;;;;5020890;28;20045;-50
2022/10/19 04:46:28;;;;;;;2.42;0.52;;;10.30;99.90;;;;;;5021282;28;20041;-46
2022/10/19 04:48:54;;;;;;;7.28;1.15;;;10.30;99.90;;;;;;5019100;28;20025;-50
2022/10/19 04:51:21;;;;;;;5.55;1.48;;;10.30;99.90;;;;;;5019609;28;20021;-46
2022/10/19 04:53:47;;;;;;;4.72;0.93;;;10.30;99.90;;;;;;5021378;28;20033;-49
2022/10/19 04:56:21;;;;;;;4.13;1.00;;;10.30;99.90;;;;;;5021132;28;20026;-50
2022/10/19 04:58:47;;;;;;;14.77;1.23;;;10.30;99.90;;;;;;5022517;28;20476;-48
2022/10/19 05:01:17;;;;;;;2.83;0.80;;;10.30;99.90;;;;;;5020712;28;20074;-49
2022/10/19 05:03:44;;;;;;;6.78;1.33;;;10.30;99.90;;;;;;5017075;28;20022;-49
2022/10/19 05:06:10;;;;;;;2.80;1.33;;;10.30;99.90;;;;;;5017084;28;20033;-51
2022/10/19 05:08:36;;;;;;;7.85;1.40;;;10.30;99.90;;;;;;5019736;28;20116;-48
2022/10/19 05:11:05;;;;;;;4.63;1.52;;;10.30;99.90;;;;;;5010646;28;20045;-49
2022/10/19 05:13:32;;;;;;;7.97;1.35;;;10.30;99.90;;;;;;5020501;28;20480;-47
2022/10/19 05:15:58;;;;;;;5.13;1.13;;;10.30;99.90;;;;;;5019733;28;20472;-51
2022/10/19 05:18:24;;;;;;;5.78;0.98;;;10.20;99.90;;;;;;5014333;28;20403;-47
2022/10/19 05:20:50;;;;;;;5.47;1.50;;;10.30;99.90;;;;;;5020409;28;20033;-47
2022/10/19 05:23:15;;;;;;;11.10;1.40;;;10.30;99.90;;;;;;5013489;28;20022;-47
2022/10/19 05:25:41;;;;;;;6.82;1.90;;;10.20;99.90;;;;;;5018176;28;20032;-47
2022/10/19 05:28:06;;;;;;;4.20;1.38;;;10.20;99.90;;;;;;5020942;28;20536;-49
2022/10/19 05:30:32;;;;;;;9.20;1.67;;;10.30;99.90;;;;;;5030577;28;20488;-46
2022/10/19 05:33:00;;;;;;;3.72;1.70;;;10.30;99.90;;;;;;5022993;28;20057;-50
2022/10/19 05:35:26;;;;;;;3.75;1.45;;;10.30;99.90;;;;;;5023805;28;20032;-47
2022/10/19 05:37:54;;;;;;;3.20;1.23;;;10.30;99.90;;;;;;5027341;28;20025;-49
2022/10/19 05:40:20;;;;;;;3.63;0.73;;;10.30;99.90;;;;;;5016894;28;20112;-49
2022/10/19 05:42:46;;;;;;;10.18;1.58;;;10.30;99.90;;;;;;5028162;28;20109;-50
2022/10/19 05:45:11;;;;;;;3.63;1.15;;;10.30;99.90;;;;;;5019507;28;20108;-47
2022/10/19 05:47:37;;;;;;;7.47;2.22;;;10.30;99.90;;;;;;5020420;28;20045;-47
2022/10/19 05:50:03;;;;;;;6.90;0.95;;;10.30;99.90;;;;;;5024222;28;20042;-48
2022/10/19 05:52:28;;;;;;;8.10;1.42;;;10.30;99.90;;;;;;5021097;28;20596;-46
2022/10/19 05:54:55;;;;;;;9.60;1.65;;;10.30;99.90;;;;;;5027625;28;20144;-48
2022/10/19 05:57:20;;;;;;;6.28;1.52;;;10.30;99.90;;;;;;5024347;28;20010;-49
2022/10/19 05:59:46;;;;;;;8.82;0.90;;;10.30;99.90;;;;;;5028521;28;20026;-48
2022/10/19 06:02:13;;;;;;;4.65;1.58;;;10.30;99.90;;;;;;5018985;28;20021;-47
2022/10/19 06:04:38;;;;;;;6.93;1.50;;;10.30;99.90;;;;;;5015968;28;20026;-48
2022/10/19 06:07:04;;;;;;;8.05;2.60;;;10.30;99.90;;;;;;5021461;28;20245;-46
2022/10/19 06:09:34;;;;;;;9.00;1.98;;;10.30;99.90;;;;;;5021663;28;20054;-47
2022/10/19 06:12:00;;;;;;;11.60;1.30;;;10.30;99.90;;;;;;5024805;28;20022;-47
2022/10/19 06:14:26;;;;;;;5.13;1.98;;;10.30;99.90;;;;;;5021322;28;20452;-47
2022/10/19 06:16:51;;;;;;;10.07;1.60;;;10.40;99.90;;;;;;5019842;28;20061;-49
2022/10/19 06:19:17;;;;;;;7.80;1.83;;;10.40;99.90;;;;;;5024324;28;20025;-48
2022/10/19 06:21:44;;;;;;;7.53;1.40;;;10.40;99.90;;;;;;5019673;28;20037;-47
2022/10/19 06:24:10;;;;;;;3.85;0.95;;;10.40;99.90;;;;;;5014887;28;20051;-48
2022/10/19 06:26:36;;;;;;;7.20;1.63;;;10.40;99.90;;;;;;5024056;28;20026;-47
2022/10/19 06:29:02;;;;;;;6.45;1.80;;;10.50;99.90;;;;;;5021765;28;20393;-47
2022/10/19 06:31:33;;;;;;;8.90;2.63;;;10.50;99.90;;;;;;5018251;28;20053;-47
2022/10/19 06:33:58;;;;;;;7.07;1.65;;;10.50;99.90;;;;;;5020054;28;20029;-47
2022/10/19 06:36:27;;;;;;;15.77;2.05;;;10.50;99.90;;;;;;5034291;28;20392;-46
2022/10/19 06:38:53;;;;;;;9.63;1.92;;;10.50;99.90;;;;;;5019704;28;20064;-46
2022/10/19 06:41:19;;;;;;;9.85;2.03;;;10.50;99.90;;;;;;5019802;28;20041;-47
2022/10/19 06:43:49;;;;;;;6.43;1.83;;;10.50;99.90;;;;;;5019475;28;20021;-46
2022/10/19 06:46:19;;;;;;;11.25;3.00;;;10.60;99.90;;;;;;5018530;28;20032;-46
2022/10/19 06:48:49;;;;;;;7.47;1.90;;;10.60;99.90;;;;;;5015743;28;20025;-48
2022/10/19 06:51:15;;;;;;;4.63;1.50;;;10.70;99.90;;;;;;5011152;28;20029;-48
2022/10/19 06:53:40;;;;;;;6.05;1.52;;;10.70;99.90;;;;;;5020429;28;20025;-49
2022/10/19 06:56:06;;;;;;;7.57;1.88;;;10.70;99.90;;;;;;5021955;28;20026;-49
2022/10/19 06:58:36;;;;;;;7.80;1.92;;;10.80;99.90;;;;;;5023044;28;20022;-48
2022/10/19 07:01:02;;;;;;;4.93;1.65;;;10.80;99.90;;;;;;5022703;28;20022;-50
2022/10/19 07:03:29;;;;;;;4.43;1.20;;;10.80;99.90;;;;;;5022747;28;20069;-47
2022/10/19 07:05:56;;;;;;;5.47;2.10;;;10.90;99.90;;;;;;5020864;28;20111;-47
2022/10/19 07:08:23;;;;;;;12.52;2.53;;;10.90;99.90;;;;;;5021447;28;20022;-46
2022/10/19 07:10:51;;;;;;;5.90;2.10;;;10.90;99.90;;;;;;5004129;28;20148;-52
2022/10/19 07:13:16;;;;;;;6.70;1.73;;;10.90;99.90;;;;;;5019742;28;20018;-49
2022/10/19 07:15:42;;;;;;;6.68;1.73;;;10.90;99.90;;;;;;5023011;28;20191;-48
2022/10/19 07:18:07;;;;;;;13.35;1.92;;;10.90;99.90;;;;;;5018815;28;20068;-47
2022/10/19 07:20:33;;;;;;;7.72;1.65;;;11.00;99.90;;;;;;5023058;28;20030;-47
2022/10/19 07:22:58;;;;;;;9.50;2.53;;;11.00;99.90;;;;;;5020975;28;20095;-46
2022/10/19 07:25:25;;;;;;;9.52;1.73;;;11.00;99.90;;;;;;5022723;28;20190;-48
2022/10/19 07:27:51;;;;;;;6.80;1.85;;;11.00;99.90;;;;;;5022309;28;20021;-48
2022/10/19 07:30:16;;;;;;;7.97;1.42;;;11.00;99.90;;;;;;5013868;28;20144;-48
2022/10/19 07:32:42;;;;;;;4.50;1.35;;;11.10;99.90;;;;;;5044520;23;20526;-52
2022/10/19 07:35:07;;;;;;;6.28;1.27;;;11.00;99.90;;;;;;5015408;28;20030;-50
2022/10/19 07:37:33;;;;;;;6.28;1.77;;;11.10;99.90;;;;;;5016715;28;20022;-55
2022/10/19 07:39:58;;;;;;;7.25;2.08;;;11.10;99.90;;;;;;5012500;28;20029;-50
2022/10/19 07:42:24;;;;;;;8.27;1.85;;;11.10;99.90;;;;;;5024458;28;20443;-50
2022/10/19 07:44:50;;;;;;;8.82;2.08;;;11.10;99.90;;;;;;5015528;28;20431;-53
2022/10/19 07:47:15;;;;;;;8.30;1.30;;;11.10;99.90;;;;;;5019191;28;20036;-50
2022/10/19 07:49:41;;;;;;;10.23;2.20;;;11.10;99.90;;;;;;5011644;28;20034;-51
2022/10/19 07:52:06;;;;;;;7.93;2.03;;;11.10;99.90;;;;;;5021436;28;20029;-49
2022/10/19 07:54:32;;;;;;;9.80;1.85;;;11.10;99.90;;;;;;5018153;28;20026;-55
2022/10/19 07:56:57;;;;;;;7.47;2.00;;;11.10;99.90;;;;;;5019219;28;20026;-49
2022/10/19 07:59:23;;;;;;;6.93;2.05;;;11.20;99.90;;;;;;5018803;28;20381;-50
2022/10/19 08:01:49;;;;;;;8.80;2.00;;;11.20;99.90;;;;;;5024653;28;20022;-52
2022/10/19 08:04:15;;;;;;;13.60;2.88;;;11.20;99.90;;;;;;5015090;28;20615;-52
2022/10/19 08:06:41;;;;;;;3.80;1.13;;;11.20;99.90;;;;;;5024088;28;20100;-52
2022/10/19 08:09:06;;;;;;;7.13;1.48;;;11.20;99.90;;;;;;5016325;28;20112;-51
2022/10/19 08:11:33;;;;;;;6.40;1.95;;;11.30;99.90;;;;;;5016501;28;20391;-53
2022/10/19 08:14:01;;;;;;;6.22;1.98;;;11.30;99.90;;;;;;5018064;28;20547;-52
2022/10/19 08:16:35;;;;;;;10.60;2.38;;;11.40;99.90;;;;;;5013536;28;20025;-51
2022/10/19 08:19:21;;;;;;;4.80;1.70;;;11.50;99.90;;;;;;5039220;28;20072;-55
2022/10/19 08:21:47;;;;;;;4.68;1.45;;;11.60;99.90;;;;;;5015883;28;20096;-52
2022/10/19 08:24:16;;;;;;;12.85;2.35;;;11.60;99.90;;;;;;5037207;28;20103;-51
2022/10/19 08:26:42;;;;;;;8.38;2.00;;;11.60;99.90;;;;;;5022075;28;20503;-52
2022/10/19 08:29:09;;;;;;;8.68;1.73;;;11.60;99.90;;;;;;5020155;28;20079;-52
2022/10/19 08:31:36;;;;;;;7.65;1.58;;;11.70;99.90;;;;;;5015716;28;20447;-51
2022/10/19 08:34:02;;;;;;;9.40;1.58;;;11.80;99.90;;;;;;5017138;28;20504;-50
2022/10/19 08:36:30;;;;;;;9.00;1.42;;;11.90;99.90;;;;;;5017043;28;20021;-54
2022/10/19 08:38:56;;;;;;;7.82;1.85;;;12.00;99.90;;;;;;5019937;28;20072;-56
2022/10/19 08:41:42;;;;;;;5.55;1.52;;;12.00;99.90;;;;;;5016105;28;20031;-52
2022/10/19 08:44:27;;;;;;;;;;;12.00;99.90;;;;;;5019860;28;20029;-51
2022/10/19 08:47:01;;;;;;;5.22;1.88;;;12.00;99.90;;;;;;5020958;28;20227;-51
2022/10/19 08:49:29;;;;;;;9.60;2.05;;;11.90;99.90;;;;;;5011244;28;20030;-50
2022/10/19 08:51:58;;;;;;;7.22;1.58;;;11.90;99.90;;;;;;5020153;28;20412;-50
2022/10/19 08:54:33;;;;;;;7.20;1.67;;;11.90;99.90;;;;;;5017661;28;20022;-56
2022/10/19 08:57:24;;;;;;;8.55;1.20;;;11.90;99.90;;;;;;5020009;28;20025;-51
2022/10/19 09:00:03;;;;;;;7.88;2.30;;;11.90;99.90;;;;;;5014423;28;20087;-52
2022/10/19 09:02:36;;;;;;;7.68;1.10;;;11.90;99.90;;;;;;5015743;28;20033;-52
2022/10/19 09:05:11;;;;;;;7.13;1.50;;;12.00;99.90;;;;;;5015230;28;20038;-52
2022/10/19 09:07:44;;;;;;;6.30;1.52;;;12.00;99.90;;;;;;5017211;28;20029;-51
2022/10/19 09:10:30;;;;;;;9.93;1.80;;;12.10;99.90;;;;;;5020697;28;20025;-51
2022/10/19 09:13:19;;;;;;;3.72;1.70;;;12.10;99.90;;;;;;5008721;28;20034;-50
2022/10/19 09:15:48;;;;;;;4.00;1.75;;;12.10;99.90;;;;;;5021325;28;20033;-52
2022/10/19 09:18:29;;;;;;;7.72;1.58;;;12.10;99.90;;;;;;5018034;28;20032;-51
2022/10/19 09:21:30;;;;;;;4.30;1.80;;;12.10;99.90;;;;;;5015204;28;20115;-56
2022/10/19 09:24:14;;;;;;;3.08;1.20;;;12.10;99.90;;;;;;4994296;28;20042;-51
2022/10/19 09:26:52;;;;;;;7.30;1.42;;;12.00;99.90;;;;;;5017254;28;20208;-53
2022/10/19 09:29:20;;;;;;;4.18;1.42;;;11.90;99.90;;;;;;5014663;28;20025;-52
2022/10/19 09:31:46;;;;;;;7.55;2.10;;;11.90;99.90;;;;;;5015576;28;20026;-54
2022/10/19 09:34:22;;;;;;;5.28;1.65;;;11.90;99.90;;;;;;5017385;28;20025;-52
2022/10/19 09:36:56;;;;;;;4.60;1.70;;;12.00;99.90;;;;;;5017969;28;20112;-51
2022/10/19 09:39:22;;;;;;;10.10;1.88;;;12.10;99.90;;;;;;5011407;28;20034;-51
2022/10/19 09:41:54;;;;;;;3.05;0.90;;;12.20;99.90;;;;;;5020187;28;20039;-51
2022/10/19 09:44:22;;;;;;;6.25;1.33;;;12.20;99.90;;;;;;5020284;28;20495;-50
2022/10/19 09:46:56;;;;;;;4.00;1.10;;;12.20;99.90;;;;;;5012728;28;20030;-53
2022/10/19 09:49:42;;;;;;;4.75;1.10;;;12.10;99.90;;;;;;5014528;28;20025;-52
2022/10/19 09:52:30;;;;;;;5.07;1.45;;;12.10;99.90;;;;;;5011399;28;20026;-51
2022/10/19 09:55:06;;;;;;;8.55;2.15;;;12.10;99.90;;;;;;5024283;28;20017;-52
2022/10/19 09:57:32;;;;;;;4.97;1.25;;;12.00;99.90;;;;;;5011235;28;20010;-52
2022/10/19 09:59:57;;;;;;;6.35;1.35;;;12.00;99.90;;;;;;5024074;28;20064;-50
2022/10/19 10:02:31;;;;;;;3.70;1.42;;;11.90;99.90;;;;;;5016440;28;20058;-51
2022/10/19 10:05:03;;;;;;;10.32;1.67;;;11.90;99.90;;;;;;5015879;28;20076;-52
2022/10/19 10:07:35;;;;;;;4.40;1.27;;;11.90;99.90;;;;;;5021371;28;20172;-56
2022/10/19 10:10:02;;;;;;;4.70;0.85;;;12.00;99.90;;;;;;5017707;28;20112;-51
2022/10/19 10:12:28;;;;;;;6.43;1.48;;;12.10;99.90;;;;;;5022222;28;20141;-51
2022/10/19 10:14:55;;;;;;;5.20;1.70;;;12.20;99.90;;;;;;5020449;28;20022;-52
2022/10/19 10:17:26;;;;;;;2.10;1.10;;;12.30;99.90;;;;;;5016794;28;20017;-51
2022/10/19 10:19:58;;;;;;;10.77;2.38;;;12.40;99.90;;;;;;5021424;28;20366;-55
2022/10/19 10:22:26;;;;;;;5.28;1.25;;;12.50;99.90;;;;;;5023936;28;20080;-51
2022/10/19 10:24:54;;;;;;;4.45;1.83;;;12.60;99.90;;;;;;5026470;28;20491;-53
2022/10/19 10:27:36;;;;;;;4.40;1.25;;;12.70;99.90;;;;;;5024160;28;20032;-50
2022/10/19 10:30:07;;;;;;;6.47;1.63;;;12.80;99.90;;;;;;5020141;28;20033;-54
2022/10/19 10:32:36;;;;;;;4.88;1.80;;;12.80;99.90;;;;;;5024121;28;20041;-53
2022/10/19 10:35:06;;;;;;;4.68;1.45;;;12.70;99.90;;;;;;5021308;28;20112;-51
2022/10/19 10:37:39;;;;;;;4.55;1.58;;;12.70;99.90;;;;;;5019831;28;20037;-51
2022/10/19 10:40:15;;;;;;;3.03;1.55;;;12.70;99.90;;;;;;5025041;28;20057;-56
2022/10/19 10:42:43;;;;;;;5.13;2.25;;;12.70;99.90;;;;;;5015234;28;20033;-51
2022/10/19 10:45:22;;;;;;;2.30;1.20;;;12.70;99.90;;;;;;5025661;28;20033;-52
2022/10/19 10:47:48;;;;;;;4.05;1.55;;;12.80;99.90;;;;;;5016184;28;20041;-52
2022/10/19 10:50:30;;;;;;;4.13;1.45;;;12.90;99.90;;;;;;5023613;28;20388;-51
2022/10/19 10:53:01;;;;;;;3.70;1.30;;;13.00;99.90;;;;;;5020468;28;20495;-51
2022/10/19 10:55:28;;;;;;;6.47;1.13;;;13.00;99.90;;;;;;5020298;28;20384;-53
2022/10/19 10:58:10;;;;;;;3.92;1.13;;;13.00;99.90;;;;;;5021046;28;20026;-53
2022/10/19 11:00:39;;;;;;;3.90;1.52;;;13.00;99.90;;;;;;5019718;28;20037;-57
2022/10/19 11:03:18;;;;;;;5.40;1.55;;;12.90;99.90;;;;;;5020466;28;20033;-56
2022/10/19 11:05:52;;;;;;;2.58;1.08;;;12.80;99.90;;;;;;5015043;28;20042;-51
2022/10/19 11:08:21;;;;;;;3.05;1.00;;;12.70;99.90;;;;;;5016760;28;20031;-52
2022/10/19 11:11:09;;;;;;;4.90;0.90;;;12.60;99.90;;;;;;5011287;28;20030;-51
2022/10/19 11:13:47;;;;;;;8.30;1.55;;;12.50;99.90;;;;;;5023637;28;20393;-52
2022/10/19 11:16:22;;;;;;;2.72;0.60;;;12.50;99.90;;;;;;5023791;28;20025;-51
2022/10/19 11:18:53;;;;;;;1.27;0.70;;;12.50;99.90;;;;;;5028799;28;20024;-57
2022/10/19 11:21:30;;;;;;;2.72;0.93;;;12.50;99.90;;;;;;5018987;28;20079;-54
2022/10/19 11:23:59;;;;;;;2.55;0.80;;;12.60;99.90;;;;;;5018149;28;20075;-56
2022/10/19 11:27:01;;;;;;;2.85;0.70;;;12.60;99.90;;;;;;5025456;28;20156;-55
2022/10/19 11:30:11;;;;;;;1.80;0.55;;;12.70;99.90;;;;;;5013170;28;20030;-51
2022/10/19 11:32:37;;;;;;;4.35;0.75;;;12.70;99.90;;;;;;5017408;28;20029;-53
2022/10/19 11:35:20;;;;;;;1.98;0.82;;;12.80;99.90;;;;;;5021276;28;20026;-52
2022/10/19 11:37:54;;;;;;;1.48;0.47;;;12.90;99.90;;;;;;5026634;28;20025;-51
2022/10/19 11:40:34;;;;;;;2.47;0.60;;;12.90;99.90;;;;;;5015443;28;20428;-55
2022/10/19 11:43:18;;;;;;;3.25;0.60;;;13.00;99.90;;;;;;5026895;28;20476;-51
2022/10/19 11:46:19;;;;;;;2.45;1.13;;;13.00;99.90;;;;;;5019179;28;20025;-51
2022/10/19 11:49:03;;;;;;;2.10;0.60;;;13.00;99.90;;;;;;5018170;28;20049;-55
2022/10/19 11:51:36;;;;;;;2.08;0.90;;;13.10;99.90;;;;;;5009006;28;20021;-51
2022/10/19 11:54:23;;;;;;;1.38;0.73;;;13.00;99.90;;;;;;5021686;28;20388;-53
2022/10/19 11:57:34;;;;;;;2.50;0.77;;;13.10;99.90;;;;;;5022284;28;20079;-55
2022/10/19 12:00:05;;;;;;;2.35;0.80;;;13.10;99.90;;;;;;5006908;28;20057;-53
2022/10/19 12:03:05;;;;;;;2.72;0.73;;;13.10;99.90;;;;;;5021691;28;20109;-58
2022/10/19 12:05:41;;;;;;;3.35;0.60;;;13.10;99.90;;;;;;5011006;28;20078;-51
2022/10/19 12:08:28;;;;;;;1.83;1.08;;;13.10;99.90;;;;;;5020093;28;20026;-51
2022/10/19 12:11:10;;;;;;;2.53;0.57;;;13.10;99.90;;;;;;5021128;28;20029;-50
2022/10/19 12:13:43;;;;;;;0.93;0.73;;;13.10;99.90;;;;;;5015779;28;20025;-53
2022/10/19 12:16:12;;;;;;;1.73;0.50;;;13.00;99.90;;;;;;5021142;28;20030;-52
2022/10/19 12:18:45;;;;;;;2.05;0.52;;;13.10;99.90;;;;;;5017351;28;20032;-51
2022/10/19 12:21:24;;;;;;;10.75;0.90;;;13.10;99.90;;;;;;5021643;28;20014;-54
2022/10/19 12:23:50;;;;;;;1.40;0.63;;;13.00;99.90;;;;;;5020939;28;20026;-54
2022/10/19 12:26:18;;;;;;;1.08;0.57;;;13.00;99.90;;;;;;5019876;28;20025;-54
2022/10/19 12:28:53;;;;;;;2.53;0.57;;;13.00;99.90;;;;;;5016873;28;20037;-57
2022/10/19 12:31:20;;;;;;;2.47;1.02;;;13.00;99.90;;;;;;5014217;28;20028;-54
2022/10/19 12:33:55;;;;;;;3.88;0.63;;;13.00;99.90;;;;;;5019812;28;20057;-51
2022/10/19 12:36:44;;;;;;;1.10;0.60;;;13.00;99.90;;;;;;5015202;28;20535;-52
2022/10/19 12:39:22;;;;;;;2.63;1.08;;;13.10;99.90;;;;;;5020244;28;20079;-51
2022/10/19 12:42:11;;;;;;;2.22;0.80;;;13.00;99.90;;;;;;5021213;28;20302;-53
2022/10/19 12:44:48;;;;;;;1.80;0.85;;;13.10;99.90;;;;;;5021257;28;20018;-51
2022/10/19 12:47:18;;;;;;;1.75;0.57;;;13.10;99.90;;;;;;5014950;28;20026;-52
2022/10/19 12:49:49;;;;;;;2.05;0.60;;;13.10;99.90;;;;;;5011587;28;20034;-53
2022/10/19 12:52:47;;;;;;;3.13;0.68;;;13.10;99.90;;;;;;5010004;28;20056;-55
2022/10/19 12:55:33;;;;;;;8.98;1.00;;;13.10;99.90;;;;;;5019873;28;20064;-57
2022/10/19 12:58:05;;;;;;;1.77;0.60;;;13.20;99.90;;;;;;5017748;28;20524;-51
2022/10/19 13:00:34;;;;;;;2.22;0.52;;;13.20;99.90;;;;;;5012075;28;20030;-51
2022/10/19 13:03:07;;;;;;;3.30;0.70;;;13.20;99.90;;;;;;5014452;28;20029;-53
2022/10/19 13:05:34;;;;;;;2.80;0.57;;;13.20;99.90;;;;;;5021589;28;20026;-53
2022/10/19 13:08:03;;;;;;;2.83;0.30;;;13.20;99.90;;;;;;5017293;28;20037;-56